• Join FlightAware (Why Join?)
  • Login
  • US Flag 
10:39AM EDT


 

Airport Tracker/Info


-or-


 

Live Flight TrackerFlight Track Log ✈ N71MJ ✈ 26-Mar-2014 ✈ KEYW - KORL

Flight Track Log - Related Links

Times and Time Zones

All times are in EDT time to prevent confusion due to time zone crossing. See the N71MJ flight status page for this flight to view local times or setup timezone preferences in your user account.

Time Position Orientation Groundspeed Altitude Reporting Facility
EDT Latitude Longitude Course Direction KTS MPH feet Rate Location/Type
10:16AM 24.6867 -81.7658 358° North 123 142 4,400  Level Miami Center
10:17AM 24.7222 -81.7650 North 123 142 5,300 900 Climbing Miami Center
10:18AM 24.7597 -81.7642 North 123 142 6,200 840 Climbing Miami Center
10:19AM 24.8484 -81.7293 North  Level Estimated
10:19AM 24.7975 -81.7658 358° North 123 142 7,000  Level Miami Center
10:20AM 24.8902 -81.7249 North  Level Estimated
10:20AM 24.8350 -81.7650 North 123 142 7,700  Level Miami Center
10:21AM 24.8747 -81.7642 North 128 147 8,400 600 Climbing Miami Center
10:22AM 24.9164 -81.7658 358° North 133 153 9,000 600 Climbing Miami Center
10:23AM 24.9583 -81.7653 North 144 166 9,600 480 Climbing Miami Center
10:24AM 25.0019 -81.7669 358° North 144 166 10,000 180 Climbing Miami Center
10:25AM 25.0481 -81.7667 360° North 150 173 10,000  Level Miami Center
10:26AM 25.0961 -81.7661 North 162 186 10,000 -60 Level Miami Center
10:27AM 25.1439 -81.7681 358° North 167 192 9,900 -60 Descending Miami Center
10:28AM 25.1942 -81.7678 360° North 172 198 9,900  Level Miami Center
10:29AM 25.2400 -81.7675 360° North 172 198 9,900  Level Miami Center
10:30AM 25.2861 -81.7669 North 166 191 9,900  Level Miami Center
10:31AM 25.3319 -81.7689 358° North 166 191 9,900  Level Miami Center
10:32AM 25.3800 -81.7683 North 160 184 9,900  Level Miami Center
10:33AM 25.3776 -81.7629 North  Level Estimated
10:33AM 25.4281 -81.7681 360° North 160 184 9,900  Level Miami Center
10:34AM 25.4739 -81.7700 358° North 160 184 9,900  Level Miami Center
10:35AM 25.5197 -81.7694 North 160 184 9,900  Level Miami Center
10:36AM 25.5553 -81.7686 North 160 184 9,900  Level Miami Center
10:37AM 25.6094 -81.7731 356° North 160 184 9,900  Level Miami Center
10:38AM 25.6533 -81.7681 North 160 184 9,900  Level Miami Center
10:39AM 25.6972 -81.7722 355° North 160 184 10,000  Climbing Miami Center
10:40AM 25.7431 -81.7717 North 160 184 10,000  Level Miami Center
10:41AM 25.7869 -81.7711 North 160 184 10,000  Level Miami Center
10:42AM 25.8350 -81.7708 360° North 160 184 10,000  Level Miami Center
10:43AM 25.8789 -81.7703 North 160 184 10,000  Level Miami Center
10:44AM 25.9247 -81.7722 358° North 160 184 10,000  Level Miami Center
10:45AM 25.9667 -81.7717 North 160 184 10,000  Level Miami Center
10:46AM 26.0103 -81.7733 358° North 160 184 10,000  Level Miami Center
10:47AM 26.0542 -81.7731 360° North 160 184 10,000  Level Miami Center
11:04AM 26.7878 -81.8150 North 154 177 10,000  Level Miami Center
11:05AM 26.7890 -81.7587 North  Level FlightAware Approximate
11:05AM 26.8253 -81.8144 North 154 177 10,000  Level Miami Center
11:06AM 26.8320 -81.7574 North  Level FlightAware Approximate
11:06AM 26.8753 -81.8142 360° North 154 177 10,000  Level Miami Center
11:07AM 26.8751 -81.7561 North  Level FlightAware Approximate
11:07AM 26.9108 -81.8111 North 166 191 10,000  Level Miami Center
11:08AM 26.9181 -81.7549 North  Level FlightAware Approximate
11:08AM 26.9528 -81.8058 North 155 178 10,000  Level Miami Center
11:09AM 26.9612 -81.7536 North  Level FlightAware Approximate
11:09AM 26.9989 -81.8056 360° North 155 178 9,400  Level Miami Center
11:10AM 27.0042 -81.7523 North  Level FlightAware Approximate
11:10AM 27.0511 -81.7983 North 161 185 8,900  Level Miami Center
11:11AM 27.0994 -81.7958 North 161 185 8,300 -600 Descending Miami Center
11:12AM 27.1494 -81.7908 North 161 185 7,700 -600 Descending Miami Center
11:13AM 27.1978 -81.7883 North 161 185 7,200 -480 Descending Miami Center
11:14AM 27.2439 -81.7833 North 161 185 6,800 -420 Descending Miami Center
11:15AM 27.2939 -81.7783 North 167 192 6,400 -360 Descending Miami Center
11:16AM 27.3444 -81.7711 North 172 198 6,100 -360 Descending Miami Center
11:18AM 27.3925 -81.7661 North 172 198 5,700 -480 Descending Miami Center
11:19AM 27.4492 -81.7617 North 172 198 5,100 -360 Descending Miami Center
11:20AM 27.4931 -81.7589 North 167 192 5,000 -60 Descending Miami Center
11:21AM 27.5367 -81.7583 North 161 185 5,000  Level Miami Center
11:22AM 27.5725 -81.7553 North 151 174 5,000  Level Miami Center
11:23AM 27.6122 -81.7522 North 151 174 5,000  Level Miami Center
11:24AM 27.6581 -81.7542 358° North 146 168 5,000  Level Miami Center
11:25AM 27.6978 -81.7536 North 141 162 5,000  Level Miami Center
11:26AM 27.7372 -81.7528 North 141 162 5,000  Level Miami Center
11:27AM 27.7728 -81.7497 North 136 157 5,000  Level Miami Center
11:29AM 27.8667 -81.7500 360° North 142 163 5,000  Level Orlando TRACON
11:30AM 27.9167 -81.7500 360° North 142 163 5,000  Level Orlando TRACON
11:31AM 27.9500 -81.7500 360° North 143 165 5,000 -300 Level Orlando TRACON
11:32AM 27.9833 -81.7333 24° Northeast 164 189 4,500 -480 Descending Orlando TRACON
11:33AM 28.0333 -81.7000 30° Northeast 162 186 4,100 -300 Descending Orlando TRACON
11:34AM 28.0667 -81.6833 24° Northeast 153 176 4,000 -60 Descending Orlando TRACON
11:35AM 28.1000 -81.6667 24° Northeast 142 163 4,000  Level Orlando TRACON
11:36AM 28.1333 -81.6500 24° Northeast 138 159 4,000  Level Orlando TRACON
11:37AM 28.1667 -81.6167 41° Northeast 141 162 4,000  Level Orlando TRACON
11:38AM 28.2000 -81.6000 24° Northeast 142 163 4,000  Level Orlando TRACON
11:39AM 28.2500 -81.5833 16° North 142 163 4,000  Level Orlando TRACON
11:40AM 28.2833 -81.5667 24° Northeast 144 166 4,000 -180 Level Orlando TRACON
11:41AM 28.3167 -81.5667 360° North 148 170 3,700 -420 Descending Orlando TRACON
11:42AM 28.3667 -81.5667 360° North 156 180 3,200 -480 Descending Orlando TRACON
11:43AM 28.4000 -81.5500 24° Northeast 162 186 2,800 -600 Descending Orlando TRACON
11:44AM 28.4500 -81.5333 16° North 163 188 2,100 -420 Descending Orlando TRACON
11:45AM 28.4833 -81.5000 41° Northeast 142 163 2,000  Descending Orlando TRACON
11:46AM 28.5000 -81.4667 60° Northeast 143 165 2,100 -120 Climbing Orlando TRACON
11:47AM 28.5167 -81.4167 69° East 128 147 1,800 -480 Descending Orlando TRACON
11:48AM 28.5167 -81.4000 90° East 105 121 1,200 -600 Descending Orlando TRACON
11:49AM 28.5333 -81.3667 60° Northeast 107 123 600 -600 Descending Orlando TRACON
11:51AM 28.5455 -81.3329 90° East  Level Estimated
11:58AM 28.5455 -81.3329 90° East  Level Estimated
11:59AM 28.5455 -81.3329 90° East  Level Estimated
12:00PM 28.5455 -81.3329 90° East  Level Estimated
12:01PM 28.5455 -81.3329 90° East  Level Estimated